createdAt,value
2022-12-22T00:02:00.465Z,46.78
2022-12-22T00:05:40.158Z,42.15
2022-12-22T00:09:05.404Z,47.25
2022-12-22T00:12:30.994Z,40.40
2022-12-22T00:15:53.571Z,39.78
2022-12-22T00:19:15.111Z,45.70
2022-12-22T00:22:41.087Z,37.42
2022-12-22T00:26:02.552Z,40.97
2022-12-22T00:29:23.601Z,46.67
2022-12-22T00:32:52.023Z,42.15
2022-12-22T00:36:12.997Z,41.65
2022-12-22T00:39:34.369Z,44.35
2022-12-22T00:42:55.971Z,45.30
2022-12-22T00:46:20.024Z,41.73
2022-12-22T00:49:43.320Z,43.25
2022-12-22T00:53:04.906Z,38.38
2022-12-22T00:56:26.950Z,42.75
2022-12-22T00:59:48.454Z,42.85
2022-12-22T01:03:09.647Z,43.53
2022-12-22T01:06:31.287Z,45.17
2022-12-22T01:09:52.688Z,37.90
2022-12-22T01:13:14.252Z,38.70
2022-12-22T01:16:35.316Z,43.97
2022-12-22T01:19:57.365Z,46.27
2022-12-22T01:23:18.752Z,48.53
2022-12-22T01:26:40.014Z,55.58
2022-12-22T01:30:01.324Z,52.50
2022-12-22T01:33:22.974Z,55.08
2022-12-22T01:36:44.273Z,50.00
2022-12-22T01:40:05.808Z,52.03
2022-12-22T01:43:44.571Z,52.83
2022-12-22T01:47:05.880Z,55.45
2022-12-22T01:50:27.292Z,47.10
2022-12-22T01:53:48.660Z,47.90
2022-12-22T01:57:10.489Z,52.47
2022-12-22T02:00:31.971Z,50.40
2022-12-22T02:03:53.586Z,47.75
2022-12-22T02:07:18.146Z,39.25
2022-12-22T02:10:58.160Z,38.47
2022-12-22T02:14:35.503Z,42.72
2022-12-22T02:18:09.788Z,48.17
2022-12-22T02:21:37.468Z,42.17
2022-12-22T02:25:02.666Z,38.95
2022-12-22T02:28:24.689Z,41.47
2022-12-22T02:31:53.289Z,44.63
2022-12-22T02:35:14.685Z,36.60
2022-12-22T02:39:09.710Z,41.15
2022-12-22T02:42:55.508Z,38.25
2022-12-22T02:46:38.253Z,42.60
2022-12-22T02:50:38.677Z,42.55
2022-12-22T02:53:59.936Z,45.05
2022-12-22T02:57:35.083Z,38.90
2022-12-22T03:00:57.500Z,37.00
2022-12-22T03:04:19.116Z,40.63
2022-12-22T03:07:40.639Z,47.95
2022-12-22T03:11:02.160Z,40.55
2022-12-22T03:14:23.619Z,40.53
2022-12-22T03:17:44.958Z,47.60
2022-12-22T03:21:06.393Z,38.77
2022-12-22T03:24:27.912Z,43.15
2022-12-22T03:27:30.811Z,42.13
2022-12-22T03:30:35.243Z,42.70
2022-12-22T03:33:38.027Z,38.90
2022-12-22T03:36:40.822Z,44.00
2022-12-22T03:39:43.318Z,48.85
2022-12-22T03:43:04.823Z,44.72
2022-12-22T03:46:29.358Z,42.47
2022-12-22T03:49:32.415Z,46.83
2022-12-22T03:52:34.909Z,38.13
2022-12-22T03:55:37.659Z,42.38
2022-12-22T03:58:40.213Z,47.95
2022-12-22T04:01:48.779Z,45.78
2022-12-22T04:04:51.761Z,39.35
2022-12-22T04:07:54.259Z,43.40
2022-12-22T04:11:15.600Z,39.63
2022-12-22T04:14:18.047Z,42.83
2022-12-22T04:17:20.842Z,35.05
2022-12-22T04:20:28.723Z,41.15
2022-12-22T04:23:31.553Z,40.60
2022-12-22T04:26:34.668Z,34.05
2022-12-22T04:29:37.508Z,42.33
2022-12-22T04:32:40.099Z,46.97
2022-12-22T04:35:43.011Z,43.50
2022-12-22T04:38:46.258Z,47.70
2022-12-22T04:41:49.205Z,44.42
2022-12-22T04:44:51.768Z,45.17
2022-12-22T04:47:54.597Z,43.60
2022-12-22T04:50:59.105Z,46.67
2022-12-22T04:54:01.951Z,45.87
2022-12-22T04:57:04.596Z,44.45
2022-12-22T05:00:08.751Z,39.97
2022-12-22T05:03:11.528Z,40.22
2022-12-22T05:06:15.001Z,42.33
2022-12-22T05:09:18.632Z,43.30
2022-12-22T05:12:40.383Z,45.08
2022-12-22T05:15:42.963Z,42.45
2022-12-22T05:18:46.174Z,50.50
2022-12-22T05:21:48.751Z,58.47
2022-12-22T05:24:51.636Z,60.33
2022-12-22T05:27:54.443Z,57.70
2022-12-22T05:30:57.742Z,67.35
2022-12-22T05:34:00.403Z,77.40
2022-12-22T05:37:03.200Z,73.78
2022-12-22T05:40:06.510Z,64.97
2022-12-22T05:43:10.226Z,67.10
2022-12-22T05:46:12.857Z,57.80
2022-12-22T05:49:15.732Z,60.28
2022-12-22T05:52:18.218Z,58.03
2022-12-22T05:55:21.099Z,60.83
2022-12-22T05:58:23.703Z,60.20
2022-12-22T06:01:26.507Z,56.53
2022-12-22T06:04:29.448Z,56.75
2022-12-22T06:07:32.021Z,64.00
2022-12-22T06:10:35.185Z,61.37
2022-12-22T06:13:37.924Z,57.00
2022-12-22T06:16:40.952Z,59.42
2022-12-22T06:19:43.637Z,51.72
2022-12-22T06:22:49.767Z,57.08
2022-12-22T06:26:00.718Z,59.47
2022-12-22T06:29:04.029Z,58.53
2022-12-22T06:32:06.625Z,54.20
2022-12-22T06:35:10.045Z,58.13
2022-12-22T06:38:12.597Z,58.60
2022-12-22T06:41:15.505Z,61.07
2022-12-22T06:44:18.076Z,62.85
2022-12-22T06:47:22.022Z,53.87
2022-12-22T06:50:25.279Z,56.35
2022-12-22T06:53:28.266Z,57.30
2022-12-22T06:56:30.843Z,52.60
2022-12-22T06:59:33.755Z,49.47
2022-12-22T07:02:36.591Z,56.50
2022-12-22T07:05:39.629Z,57.67
2022-12-22T07:08:42.705Z,78.40
2022-12-22T07:11:45.552Z,98.53
2022-12-22T07:14:48.177Z,105.60
2022-12-22T07:17:53.655Z,109.78
2022-12-22T07:20:57.354Z,107.40
2022-12-22T07:24:00.156Z,117.28
2022-12-22T07:27:02.650Z,95.23
2022-12-22T07:30:05.956Z,103.07
2022-12-22T07:33:08.565Z,115.18
2022-12-22T07:36:14.687Z,93.07
2022-12-22T07:39:17.222Z,71.80
2022-12-22T07:42:38.849Z,69.80
2022-12-22T07:45:45.224Z,71.55
2022-12-22T07:49:08.252Z,71.25
2022-12-22T07:52:10.840Z,72.00
2022-12-22T07:55:14.216Z,67.40
2022-12-22T07:58:16.840Z,69.40
2022-12-22T08:01:19.743Z,74.65
2022-12-22T08:04:22.719Z,68.37
2022-12-22T08:07:25.292Z,70.97
2022-12-22T08:10:28.151Z,65.65
2022-12-22T08:13:31.219Z,60.53
2022-12-22T08:16:34.331Z,57.00
2022-12-22T08:19:37.014Z,54.13
2022-12-22T08:22:39.911Z,53.58
2022-12-22T08:25:42.568Z,59.20
2022-12-22T08:28:55.110Z,55.20
2022-12-22T08:31:58.340Z,57.75
2022-12-22T08:35:01.277Z,57.50
2022-12-22T08:38:05.067Z,58.13
2022-12-22T08:41:11.751Z,70.85
2022-12-22T08:44:14.302Z,72.63
2022-12-22T08:47:17.883Z,74.93
2022-12-22T08:50:20.783Z,78.57
2022-12-22T08:54:02.451Z,63.45
2022-12-22T08:56:47.249Z,68.05
2022-12-22T08:59:50.064Z,64.40
2022-12-22T09:02:54.521Z,61.63
2022-12-22T09:06:01.653Z,67.97
2022-12-22T09:09:06.943Z,54.13
2022-12-22T09:12:10.383Z,58.90
2022-12-22T09:15:14.298Z,65.93
2022-12-22T09:18:17.162Z,55.30
2022-12-22T09:21:19.964Z,54.05
2022-12-22T09:24:23.107Z,50.60
2022-12-22T09:27:29.885Z,58.70
2022-12-22T09:30:32.690Z,52.50
2022-12-22T09:33:36.356Z,54.83
2022-12-22T09:36:42.456Z,58.22
2022-12-22T09:39:46.449Z,51.90
2022-12-22T09:42:49.320Z,54.78
2022-12-22T09:45:52.189Z,53.33
2022-12-22T09:48:55.566Z,48.58
2022-12-22T09:52:00.621Z,57.72
2022-12-22T09:55:11.083Z,51.80
2022-12-22T09:58:26.510Z,46.00
2022-12-22T10:01:42.679Z,45.20
2022-12-22T10:05:07.317Z,45.83
2022-12-22T10:08:12.198Z,48.17
2022-12-22T10:11:17.518Z,50.72
2022-12-22T10:14:20.652Z,46.22
2022-12-22T10:17:32.568Z,48.47
2022-12-22T10:20:38.343Z,55.22
2022-12-22T10:23:44.860Z,57.00
2022-12-22T10:26:47.387Z,52.45
2022-12-22T10:29:50.380Z,48.83
2022-12-22T10:33:09.877Z,60.10
2022-12-22T10:36:13.677Z,54.75
2022-12-22T10:39:26.099Z,54.03
2022-12-22T10:42:28.980Z,54.38
2022-12-22T10:45:31.556Z,53.87
2022-12-22T10:48:37.280Z,61.90
2022-12-22T10:51:40.933Z,59.40
2022-12-22T10:54:45.194Z,72.45
2022-12-22T10:57:48.261Z,68.22
2022-12-22T11:01:04.714Z,59.65
2022-12-22T11:04:25.041Z,60.13
2022-12-22T11:07:31.506Z,60.15
2022-12-22T11:10:43.614Z,65.45
2022-12-22T11:13:55.528Z,55.08
2022-12-22T11:17:03.742Z,65.28
2022-12-22T11:20:40.189Z,64.73
2022-12-22T11:24:04.644Z,61.75
2022-12-22T11:27:16.813Z,56.67
2022-12-22T11:30:24.046Z,64.80
2022-12-22T11:33:32.764Z,58.95
2022-12-22T11:36:41.438Z,56.43
2022-12-22T11:39:59.608Z,53.47
2022-12-22T11:43:27.132Z,61.10
2022-12-22T11:46:48.661Z,68.60
2022-12-22T11:50:59.767Z,73.55
2022-12-22T11:53:51.406Z,63.17
2022-12-22T11:57:11.299Z,67.18
2022-12-22T12:00:18.913Z,63.75
2022-12-22T12:03:48.963Z,61.13
2022-12-22T12:07:21.896Z,65.78
2022-12-22T12:10:35.377Z,68.97
2022-12-22T12:14:23.973Z,69.90
2022-12-22T12:17:50.168Z,67.00
2022-12-22T12:21:21.785Z,71.30
2022-12-22T12:24:47.141Z,67.30
2022-12-22T12:28:12.031Z,67.67
2022-12-22T12:31:21.368Z,68.75
2022-12-22T12:34:32.442Z,72.93
2022-12-22T12:37:39.134Z,70.55
2022-12-22T12:40:48.570Z,63.63
2022-12-22T12:43:54.540Z,63.17
2022-12-22T12:47:08.236Z,69.10
2022-12-22T12:50:35.006Z,72.75
2022-12-22T12:54:15.656Z,70.85
2022-12-22T12:57:31.354Z,65.47
2022-12-22T13:00:34.017Z,65.13
2022-12-22T13:07:02.439Z,57.72
2022-12-22T13:10:08.543Z,63.72
2022-12-22T13:13:26.386Z,61.17
2022-12-22T13:16:35.947Z,64.17
2022-12-22T13:19:38.500Z,66.68
2022-12-22T13:22:43.054Z,60.55
2022-12-22T13:25:49.727Z,63.35
2022-12-22T13:29:01.258Z,75.37
2022-12-22T13:32:14.180Z,60.10
2022-12-22T13:35:32.760Z,69.45
2022-12-22T13:38:37.844Z,71.53
2022-12-22T13:41:42.749Z,80.85
2022-12-22T13:44:46.479Z,72.87
2022-12-22T13:47:49.775Z,74.57
2022-12-22T13:51:00.334Z,78.15
2022-12-22T13:54:11.121Z,77.80
2022-12-22T13:57:18.024Z,75.40
2022-12-22T14:00:24.311Z,75.97
2022-12-22T14:03:58.236Z,77.83
2022-12-22T14:06:50.390Z,77.93
2022-12-22T14:09:56.253Z,81.87
2022-12-22T14:12:59.365Z,74.65
2022-12-22T14:16:05.180Z,70.32
2022-12-22T14:19:08.261Z,88.23
2022-12-22T14:22:15.522Z,83.20
2022-12-22T14:25:39.891Z,74.55
2022-12-22T14:28:53.248Z,76.68
2022-12-22T14:32:01.887Z,70.07
2022-12-22T14:35:26.003Z,75.20
2022-12-22T14:38:28.658Z,76.55
2022-12-22T14:41:43.622Z,83.57
2022-12-22T14:44:46.867Z,81.03
2022-12-22T14:47:49.913Z,78.07
2022-12-22T14:50:52.840Z,72.83
2022-12-22T14:53:57.703Z,80.43
2022-12-22T14:57:16.075Z,73.00
2022-12-22T15:00:24.680Z,79.53
2022-12-22T15:03:34.298Z,74.45
2022-12-22T15:06:40.572Z,95.37
2022-12-22T15:13:10.763Z,82.20
2022-12-22T15:16:16.007Z,68.25
2022-12-22T15:19:22.480Z,81.82
2022-12-22T15:22:25.597Z,72.73
2022-12-22T15:25:28.470Z,82.40
2022-12-22T15:28:31.450Z,69.53
2022-12-22T15:31:34.999Z,76.60
2022-12-22T15:34:37.937Z,71.57
2022-12-22T15:37:40.826Z,69.53
2022-12-22T15:40:44.874Z,68.15
2022-12-22T15:44:03.091Z,68.62
2022-12-22T15:47:05.655Z,73.10
2022-12-22T15:50:16.431Z,74.90
2022-12-22T15:53:19.800Z,76.20
2022-12-22T15:56:24.501Z,78.65
2022-12-22T15:59:28.259Z,74.35
2022-12-22T16:02:31.375Z,83.32
2022-12-22T16:05:38.972Z,83.50
2022-12-22T16:08:43.645Z,74.00
2022-12-22T16:11:47.878Z,75.32
2022-12-22T16:14:52.910Z,96.00
2022-12-22T16:17:55.830Z,113.60
2022-12-22T16:21:08.028Z,100.43
2022-12-22T16:24:23.513Z,102.90
2022-12-22T16:27:26.182Z,109.93
2022-12-22T16:30:33.417Z,88.65
2022-12-22T16:33:37.577Z,82.43
2022-12-22T16:36:40.369Z,91.50
2022-12-22T16:39:43.035Z,80.80
2022-12-22T16:46:37.830Z,76.30
2022-12-22T16:49:40.745Z,83.28
2022-12-22T16:52:43.441Z,80.87
2022-12-22T16:55:46.605Z,68.43
2022-12-22T16:58:49.586Z,78.25
2022-12-22T17:01:55.367Z,65.90
2022-12-22T17:05:00.317Z,80.25
2022-12-22T17:08:08.777Z,73.35
2022-12-22T17:11:18.776Z,83.67
2022-12-22T17:14:30.213Z,76.30
2022-12-22T17:17:37.120Z,79.18
2022-12-22T17:20:46.512Z,78.15
2022-12-22T17:23:51.438Z,83.55
2022-12-22T17:26:54.781Z,73.43
2022-12-22T17:29:58.689Z,78.55
2022-12-22T17:33:01.617Z,79.87
2022-12-22T17:36:04.509Z,75.22
2022-12-22T17:39:12.552Z,89.55
2022-12-22T17:42:21.539Z,95.73
2022-12-22T17:45:24.697Z,90.93
2022-12-22T17:48:27.372Z,92.97
2022-12-22T17:51:30.532Z,94.00
2022-12-22T17:54:33.363Z,96.32
2022-12-22T17:57:36.447Z,101.53
2022-12-22T18:00:38.986Z,93.22
2022-12-22T18:03:42.062Z,95.18
2022-12-22T18:06:44.677Z,93.32
2022-12-22T18:09:48.278Z,86.47
2022-12-22T18:12:52.660Z,96.10
2022-12-22T18:15:56.033Z,81.35
2022-12-22T18:18:58.695Z,91.45
2022-12-22T18:22:04.156Z,92.30
2022-12-22T18:25:16.980Z,90.60
2022-12-22T18:28:19.945Z,81.23
2022-12-22T18:31:23.690Z,86.78
2022-12-22T18:34:26.831Z,80.28
2022-12-22T18:37:29.421Z,90.38
2022-12-22T18:40:37.641Z,83.85
2022-12-22T18:43:40.509Z,77.33
2022-12-22T18:46:43.697Z,74.12
2022-12-22T18:49:46.453Z,90.65
2022-12-22T18:52:50.893Z,73.25
2022-12-22T18:55:53.434Z,71.37
2022-12-22T18:58:56.343Z,78.07
2022-12-22T19:02:04.283Z,87.12
2022-12-22T19:05:28.747Z,80.38
2022-12-22T19:08:31.638Z,81.07
2022-12-22T19:11:34.487Z,84.30
2022-12-22T19:14:37.113Z,92.30
2022-12-22T19:17:40.135Z,85.72
2022-12-22T19:20:43.112Z,84.78
2022-12-22T19:23:45.989Z,82.47
2022-12-22T19:26:49.139Z,77.28
2022-12-22T19:30:02.701Z,73.27
2022-12-22T19:33:07.546Z,79.22
2022-12-22T19:36:19.737Z,77.82
2022-12-22T19:39:22.443Z,73.22
2022-12-22T19:42:25.978Z,71.62
2022-12-22T19:45:34.366Z,87.80
2022-12-22T19:48:37.334Z,102.82
2022-12-22T19:51:39.860Z,104.90
2022-12-22T19:54:42.973Z,106.65
2022-12-22T19:57:46.979Z,100.87
2022-12-22T20:00:50.463Z,101.80
2022-12-22T20:03:53.710Z,97.60
2022-12-22T20:06:56.418Z,110.60
2022-12-22T20:09:59.512Z,106.45
2022-12-22T20:13:05.368Z,116.68
2022-12-22T20:16:13.586Z,106.20
2022-12-22T20:19:16.447Z,123.95
2022-12-22T20:22:20.634Z,96.95
2022-12-22T20:25:26.051Z,95.07
2022-12-22T20:28:31.329Z,103.05
2022-12-22T20:31:34.019Z,83.33
2022-12-22T20:34:37.059Z,95.90
2022-12-22T20:37:39.819Z,83.12
2022-12-22T20:40:44.621Z,84.45
2022-12-22T20:43:47.937Z,84.18
2022-12-22T20:46:50.858Z,81.80
2022-12-22T20:49:53.911Z,82.35
2022-12-22T20:52:57.402Z,72.25
2022-12-22T20:56:01.142Z,77.28
2022-12-22T20:59:19.233Z,82.75
2022-12-22T21:02:23.600Z,79.33
2022-12-22T21:05:26.629Z,83.25
2022-12-22T21:08:29.224Z,81.20
2022-12-22T21:11:32.399Z,76.65
2022-12-22T21:14:34.962Z,86.40
2022-12-22T21:17:39.127Z,77.47
2022-12-22T21:20:45.459Z,83.47
2022-12-22T21:23:48.331Z,82.97
2022-12-22T21:26:53.030Z,79.82
2022-12-22T21:29:55.855Z,94.45
2022-12-22T21:32:58.417Z,83.27
2022-12-22T21:36:04.477Z,95.05
2022-12-22T21:39:36.974Z,86.63
2022-12-22T21:42:40.066Z,194.98
2022-12-22T21:45:43.663Z,140.77
2022-12-22T21:48:47.091Z,169.97
2022-12-22T21:51:51.215Z,193.37
2022-12-22T21:54:54.375Z,271.30
2022-12-22T21:57:58.112Z,258.33
2022-12-22T22:01:01.133Z,327.80
2022-12-22T22:04:04.408Z,193.70
2022-12-22T22:07:07.068Z,314.80
2022-12-22T22:10:10.873Z,246.90
2022-12-22T22:13:16.958Z,70.32
2022-12-22T22:16:19.967Z,156.23
2022-12-22T22:19:22.620Z,107.57
2022-12-22T22:22:25.503Z,218.07
2022-12-22T22:25:28.478Z,252.45
2022-12-22T22:28:31.677Z,68.12
2022-12-22T22:31:34.479Z,130.57
2022-12-22T22:34:37.345Z,218.77
2022-12-22T22:37:40.932Z,82.90
2022-12-22T22:40:49.077Z,348.55
2022-12-22T22:43:54.541Z,188.37
2022-12-22T22:46:57.594Z,149.38
2022-12-22T22:50:00.378Z,59.43
2022-12-22T22:53:03.503Z,58.30
2022-12-22T22:56:06.111Z,85.38
2022-12-22T22:59:12.655Z,230.00
2022-12-22T23:02:16.335Z,420.17
2022-12-22T23:05:22.994Z,539.80
2022-12-22T23:08:26.336Z,622.15
2022-12-22T23:11:29.431Z,560.47
2022-12-22T23:14:31.984Z,561.35
2022-12-22T23:17:34.841Z,554.62
2022-12-22T23:20:38.557Z,567.80
2022-12-22T23:23:41.631Z,427.05
2022-12-22T23:26:44.269Z,431.98
2022-12-22T23:29:47.047Z,447.95
2022-12-22T23:32:49.803Z,437.73
2022-12-22T23:35:53.225Z,402.93
2022-12-22T23:38:55.948Z,289.75
2022-12-22T23:41:59.140Z,337.83
2022-12-22T23:45:02.649Z,462.75
2022-12-22T23:48:07.026Z,362.00
2022-12-22T23:51:11.000Z,435.70
2022-12-22T23:54:13.929Z,472.02
2022-12-22T23:57:16.461Z,288.75
